Time;durP1;ratioP1;P1;durP2;ratioP2;P2;SDS_P1;SDS_P2;PMS_P1;PMS_P2;Temp;Humidity;BMP_temperature;BMP_pressure;BME280_temperature;BME280_humidity;BME280_pressure;Samples;Min_cycle;Max_cycle;Signal;HPM_P1;HPM_P2
2022/01/01 00:02:48;;;;;;;53.63;28.80;;;;;;;;;;6260042;28;20061;-57
2022/01/01 00:05:49;;;;;;;47.42;23.10;;;;;;;;;;6264322;28;20049;-59
2022/01/01 00:08:49;;;;;;;40.97;22.92;;;;;;;;;;6263756;28;20052;-59
2022/01/01 00:11:50;;;;;;;37.92;21.08;;;;;;;;;;6263944;28;20100;-56
2022/01/01 00:14:51;;;;;;;34.85;19.23;;;;;;;;;;6265357;28;20057;-60
2022/01/01 00:17:52;;;;;;;36.53;20.05;;;;;;;;;;6264124;28;20064;-59
2022/01/01 00:20:52;;;;;;;32.88;17.20;;;;;;;;;;6264144;28;20036;-58
2022/01/01 00:23:53;;;;;;;30.85;16.98;;;;;;;;;;6260519;28;20041;-54
2022/01/01 00:26:54;;;;;;;29.60;16.42;;;;;;;;;;6261419;28;20103;-60
2022/01/01 00:29:55;;;;;;;29.83;16.08;;;;;;;;;;6267201;28;20185;-60
2022/01/01 00:32:55;;;;;;;29.77;15.90;;;;;;;;;;6261859;28;20040;-54
2022/01/01 00:35:56;;;;;;;27.83;16.50;;;;;;;;;;6263746;28;20057;-56
2022/01/01 00:38:57;;;;;;;26.60;15.43;;;;;;;;;;6263510;28;20052;-59
2022/01/01 00:41:59;;;;;;;24.85;14.77;;;;;;;;;;6264746;28;20052;-54
2022/01/01 00:45:00;;;;;;;23.70;13.45;;;;;;;;;;6270156;28;20072;-60
2022/01/01 00:48:00;;;;;;;22.15;13.20;;;;;;;;;;6270031;28;20045;-59
2022/01/01 00:51:01;;;;;;;22.83;13.77;;;;;;;;;;6264925;28;20052;-60
2022/01/01 00:54:02;;;;;;;24.38;13.65;;;;;;;;;;6264827;28;20052;-60
2022/01/01 00:57:03;;;;;;;22.30;13.45;;;;;;;;;;6268132;28;20110;-59
2022/01/01 01:00:05;;;;;;;19.43;11.53;;;;;;;;;;6271985;28;20069;-57
2022/01/01 01:03:13;;;;;;;20.00;12.63;;;;;;;;;;6267268;28;20098;-61
2022/01/01 01:06:14;;;;;;;20.83;12.68;;;;;;;;;;6263718;28;20060;-58
2022/01/01 01:09:15;;;;;;;19.77;12.65;;;;;;;;;;6272698;28;20057;-54
2022/01/01 01:12:21;;;;;;;23.48;12.90;;;;;;;;;;6275181;28;20052;-55
2022/01/01 01:15:21;;;;;;;25.98;15.13;;;;;;;;;;6279001;28;20467;-58
2022/01/01 01:18:22;;;;;;;23.00;13.10;;;;;;;;;;6275028;28;20397;-60
2022/01/01 01:21:24;;;;;;;25.38;16.30;;;;;;;;;;6274112;28;20514;-59
2022/01/01 01:24:26;;;;;;;28.35;15.63;;;;;;;;;;6269255;28;20144;-60
2022/01/01 01:27:28;;;;;;;26.85;14.90;;;;;;;;;;6271234;28;20048;-56
2022/01/01 01:30:29;;;;;;;27.40;16.35;;;;;;;;;;6265915;28;20286;-60
2022/01/01 01:33:30;;;;;;;29.77;16.63;;;;;;;;;;6267543;28;20052;-60
2022/01/01 01:36:30;;;;;;;26.65;14.98;;;;;;;;;;6267131;28;20818;-59
2022/01/01 01:39:31;;;;;;;26.63;15.55;;;;;;;;;;6271681;28;20058;-60
2022/01/01 01:42:33;;;;;;;28.75;16.90;;;;;;;;;;6271377;28;20056;-60
2022/01/01 01:45:34;;;;;;;28.27;15.45;;;;;;;;;;6265007;28;20053;-59
2022/01/01 01:48:38;;;;;;;26.45;15.75;;;;;;;;;;6268361;28;20057;-59
2022/01/01 01:51:38;;;;;;;27.55;15.73;;;;;;;;;;6271623;28;20053;-52
2022/01/01 01:54:40;;;;;;;28.45;16.88;;;;;;;;;;6263355;28;20190;-61
2022/01/01 01:57:41;;;;;;;30.77;16.70;;;;;;;;;;6268222;28;20388;-59
2022/01/01 02:03:43;;;;;;;26.83;15.60;;;;;;;;;;6263654;28;20051;-60
2022/01/01 02:06:44;;;;;;;24.60;14.75;;;;;;;;;;6266316;28;20563;-61
2022/01/01 02:09:45;;;;;;;25.08;14.57;;;;;;;;;;6266488;28;20049;-60
2022/01/01 02:12:52;;;;;;;19.80;13.18;;;;;;;;;;6266312;28;20080;-59
2022/01/01 02:18:54;;;;;;;23.30;13.63;;;;;;;;;;6267578;28;20461;-62
2022/01/01 02:22:00;;;;;;;23.92;14.60;;;;;;;;;;6266269;28;20074;-60
2022/01/01 02:25:01;;;;;;;20.35;13.23;;;;;;;;;;6265796;28;20547;-60
2022/01/01 02:28:02;;;;;;;18.25;11.95;;;;;;;;;;6266256;28;20098;-59
2022/01/01 02:31:03;;;;;;;17.83;11.35;;;;;;;;;;6266441;28;20048;-59
2022/01/01 02:34:08;;;;;;;16.60;10.50;;;;;;;;;;6263864;28;20098;-60
2022/01/01 02:37:09;;;;;;;15.38;10.13;;;;;;;;;;6263498;28;20092;-60
2022/01/01 02:40:12;;;;;;;15.88;9.80;;;;;;;;;;6269352;28;20580;-60
2022/01/01 02:43:14;;;;;;;12.77;8.23;;;;;;;;;;6267576;28;20163;-53
2022/01/01 02:46:15;;;;;;;14.70;8.15;;;;;;;;;;6265721;28;20057;-59
2022/01/01 02:49:15;;;;;;;12.88;7.90;;;;;;;;;;6264415;28;20574;-60
2022/01/01 02:52:16;;;;;;;12.48;7.95;;;;;;;;;;6265716;28;20052;-56
2022/01/01 02:55:16;;;;;;;15.23;8.40;;;;;;;;;;6263319;28;20049;-61
2022/01/01 02:58:17;;;;;;;12.30;7.45;;;;;;;;;;6264914;28;20052;-60
2022/01/01 03:01:18;;;;;;;12.95;7.05;;;;;;;;;;6268342;28;20060;-59
2022/01/01 03:04:19;;;;;;;11.43;7.60;;;;;;;;;;6263517;28;20101;-60
2022/01/01 03:07:19;;;;;;;11.20;7.20;;;;;;;;;;6264566;28;20851;-60
2022/01/01 03:10:20;;;;;;;10.82;6.55;;;;;;;;;;6266464;28;20052;-55
2022/01/01 03:13:21;;;;;;;12.15;6.88;;;;;;;;;;6264271;28;20049;-59
2022/01/01 03:16:22;;;;;;;12.15;6.97;;;;;;;;;;6261548;28;20082;-61
2022/01/01 03:19:23;;;;;;;11.13;6.80;;;;;;;;;;6263649;28;20140;-61
2022/01/01 03:22:23;;;;;;;10.77;6.28;;;;;;;;;;6266276;28;20048;-58
2022/01/01 03:25:24;;;;;;;12.05;7.25;;;;;;;;;;6281778;28;20368;-60
2022/01/01 03:28:26;;;;;;;14.18;7.88;;;;;;;;;;6281400;28;20131;-61
2022/01/01 03:31:26;;;;;;;12.30;7.53;;;;;;;;;;6281529;28;20076;-59
2022/01/01 03:34:27;;;;;;;11.73;7.55;;;;;;;;;;6278834;28;20041;-60
2022/01/01 03:37:29;;;;;;;14.68;8.65;;;;;;;;;;6275733;28;20143;-59
2022/01/01 03:40:30;;;;;;;16.08;10.35;;;;;;;;;;6278128;28;20052;-60
2022/01/01 03:43:30;;;;;;;13.32;8.57;;;;;;;;;;6280940;28;20044;-57
2022/01/01 03:46:31;;;;;;;12.05;7.55;;;;;;;;;;6277482;28;20044;-60
2022/01/01 03:49:32;;;;;;;11.45;6.95;;;;;;;;;;6279601;28;20503;-58
2022/01/01 03:52:34;;;;;;;11.13;7.28;;;;;;;;;;6281840;28;20101;-59
2022/01/01 03:55:35;;;;;;;11.98;7.05;;;;;;;;;;6279631;28;20388;-59
2022/01/01 03:58:35;;;;;;;14.13;9.63;;;;;;;;;;6279264;28;20668;-59
2022/01/01 04:01:36;;;;;;;11.13;7.50;;;;;;;;;;6278152;28;20057;-59
2022/01/01 04:04:36;;;;;;;12.48;8.73;;;;;;;;;;6276538;28;20059;-60
2022/01/01 04:07:37;;;;;;;13.73;8.65;;;;;;;;;;6286526;28;20411;-58
2022/01/01 04:10:38;;;;;;;14.43;9.43;;;;;;;;;;6288591;28;20072;-57
2022/01/01 04:13:39;;;;;;;15.07;9.30;;;;;;;;;;6277093;28;20041;-59
2022/01/01 04:16:40;;;;;;;13.65;8.50;;;;;;;;;;6282418;28;20082;-59
2022/01/01 04:19:41;;;;;;;13.97;8.87;;;;;;;;;;6281055;28;20079;-57
2022/01/01 04:22:42;;;;;;;13.63;8.85;;;;;;;;;;6283520;28;20293;-60
2022/01/01 04:25:47;;;;;;;14.75;8.63;;;;;;;;;;6281698;28;20059;-59
2022/01/01 04:28:48;;;;;;;13.88;8.18;;;;;;;;;;6285455;28;20079;-59
2022/01/01 04:31:49;;;;;;;14.63;9.25;;;;;;;;;;6286118;28;20069;-58
2022/01/01 04:34:49;;;;;;;14.23;8.70;;;;;;;;;;6281959;28;20872;-58
2022/01/01 04:37:50;;;;;;;14.10;8.88;;;;;;;;;;6282662;28;20532;-58
2022/01/01 04:40:51;;;;;;;11.95;7.32;;;;;;;;;;6279026;28;20055;-60
2022/01/01 04:43:52;;;;;;;15.55;8.75;;;;;;;;;;6283624;28;20045;-58
2022/01/01 04:46:52;;;;;;;14.15;8.30;;;;;;;;;;6280510;28;20044;-57
2022/01/01 04:49:53;;;;;;;12.60;7.93;;;;;;;;;;6283766;28;20080;-59
2022/01/01 04:52:55;;;;;;;11.82;7.70;;;;;;;;;;6279473;28;20127;-58
2022/01/01 04:55:56;;;;;;;13.63;7.50;;;;;;;;;;6291379;28;20056;-56
2022/01/01 04:58:57;;;;;;;10.68;6.90;;;;;;;;;;6285838;28;20076;-58
2022/01/01 05:01:57;;;;;;;13.02;7.63;;;;;;;;;;6282537;28;20043;-58
2022/01/01 05:04:58;;;;;;;13.70;8.35;;;;;;;;;;6281007;28;20132;-61
2022/01/01 05:07:59;;;;;;;15.40;10.43;;;;;;;;;;6279017;28;20402;-55
2022/01/01 05:11:00;;;;;;;15.68;9.77;;;;;;;;;;6281936;28;20037;-57
2022/01/01 05:14:00;;;;;;;15.10;9.43;;;;;;;;;;6279140;28;20049;-61
2022/01/01 05:17:01;;;;;;;12.65;8.38;;;;;;;;;;6280003;28;20160;-58
2022/01/01 05:20:03;;;;;;;13.10;8.02;;;;;;;;;;6283178;28;20082;-59
2022/01/01 05:23:04;;;;;;;11.00;7.68;;;;;;;;;;6283818;28;20936;-60
2022/01/01 05:26:05;;;;;;;10.85;7.57;;;;;;;;;;6281163;28;20079;-55
2022/01/01 05:29:05;;;;;;;13.82;8.38;;;;;;;;;;6287505;28;20890;-57
2022/01/01 05:32:07;;;;;;;15.52;9.98;;;;;;;;;;6283601;28;20075;-57
2022/01/01 05:35:07;;;;;;;17.45;10.90;;;;;;;;;;6282646;28;20529;-57
2022/01/01 05:38:08;;;;;;;18.75;11.50;;;;;;;;;;6281324;28;20416;-56
2022/01/01 05:41:09;;;;;;;16.10;10.32;;;;;;;;;;6282221;28;20056;-59
2022/01/01 05:44:10;;;;;;;17.13;10.52;;;;;;;;;;6282263;28;20624;-60
2022/01/01 05:47:10;;;;;;;17.95;10.77;;;;;;;;;;6275282;28;20043;-55
2022/01/01 05:50:12;;;;;;;16.45;10.65;;;;;;;;;;6284138;28;20053;-57
2022/01/01 05:53:12;;;;;;;17.20;10.30;;;;;;;;;;6282782;28;20045;-59
2022/01/01 05:56:13;;;;;;;15.18;9.50;;;;;;;;;;6279324;28;20044;-57
2022/01/01 05:59:14;;;;;;;12.93;8.80;;;;;;;;;;6279890;28;20056;-59
2022/01/01 06:02:15;;;;;;;12.30;8.25;;;;;;;;;;6280640;28;20517;-56
2022/01/01 06:05:15;;;;;;;15.25;9.90;;;;;;;;;;6279555;28;20057;-58
2022/01/01 06:08:16;;;;;;;14.32;9.68;;;;;;;;;;6281363;28;20110;-60
2022/01/01 06:11:16;;;;;;;15.73;10.48;;;;;;;;;;6281917;28;20127;-60
2022/01/01 06:14:17;;;;;;;14.00;9.40;;;;;;;;;;6277183;28;20272;-56
2022/01/01 06:17:18;;;;;;;15.38;9.32;;;;;;;;;;6279960;28;20135;-55
2022/01/01 06:20:19;;;;;;;13.57;9.00;;;;;;;;;;6282436;28;20544;-59
2022/01/01 06:23:20;;;;;;;16.00;9.95;;;;;;;;;;6281928;28;20060;-61
2022/01/01 06:26:20;;;;;;;15.80;9.93;;;;;;;;;;6280694;28;20048;-60
2022/01/01 06:29:21;;;;;;;15.75;10.15;;;;;;;;;;6282164;28;20079;-60
2022/01/01 06:32:22;;;;;;;15.18;10.52;;;;;;;;;;6281406;28;20048;-59
2022/01/01 06:35:22;;;;;;;16.10;11.10;;;;;;;;;;6277840;28;20048;-58
2022/01/01 06:38:23;;;;;;;17.23;10.98;;;;;;;;;;6280226;28;20083;-59
2022/01/01 06:41:25;;;;;;;18.67;12.02;;;;;;;;;;6281339;28;20179;-58
2022/01/01 06:44:26;;;;;;;20.85;12.40;;;;;;;;;;6282572;28;20072;-59
2022/01/01 06:47:26;;;;;;;21.13;12.90;;;;;;;;;;6280352;28;20054;-57
2022/01/01 06:50:27;;;;;;;18.83;12.35;;;;;;;;;;6288154;28;20087;-59
2022/01/01 06:53:28;;;;;;;19.80;12.52;;;;;;;;;;6282961;28;20043;-57
2022/01/01 06:56:29;;;;;;;21.05;12.68;;;;;;;;;;6277701;28;20065;-56
2022/01/01 06:59:29;;;;;;;21.50;13.23;;;;;;;;;;6281773;28;20049;-59
2022/01/01 07:02:30;;;;;;;22.10;13.70;;;;;;;;;;6278374;28;20080;-58
2022/01/01 07:05:31;;;;;;;20.33;13.18;;;;;;;;;;6279475;28;20045;-59
2022/01/01 07:08:32;;;;;;;23.33;14.05;;;;;;;;;;6277268;28;20447;-59
2022/01/01 07:11:32;;;;;;;21.70;13.45;;;;;;;;;;6276226;28;20045;-58
2022/01/01 07:14:33;;;;;;;22.42;14.52;;;;;;;;;;6280126;28;20044;-59
2022/01/01 07:17:34;;;;;;;18.70;11.48;;;;;;;;;;6282655;28;20050;-60
2022/01/01 07:20:34;;;;;;;18.55;11.93;;;;;;;;;;6278705;28;20524;-58
2022/01/01 07:23:35;;;;;;;16.75;10.60;;;;;;;;;;6280755;28;20053;-60
2022/01/01 07:26:36;;;;;;;14.25;8.88;;;;;;;;;;6280572;28;20135;-60
2022/01/01 07:29:36;;;;;;;13.75;8.70;;;;;;;;;;6278038;28;20523;-57
2022/01/01 07:32:45;;;;;;;14.82;9.73;;;;;;;;;;6279667;28;20102;-61
2022/01/01 07:35:45;;;;;;;16.33;10.43;;;;;;;;;;6276310;28;20542;-60
2022/01/01 07:38:46;;;;;;;12.48;8.65;;;;;;;;;;6280291;28;20087;-57
2022/01/01 07:41:46;;;;;;;12.80;8.18;;;;;;;;;;6283877;28;20502;-54
2022/01/01 07:44:47;;;;;;;13.93;8.77;;;;;;;;;;6282814;28;20052;-58
2022/01/01 07:47:48;;;;;;;15.07;9.77;;;;;;;;;;6283506;28;20136;-60
2022/01/01 07:50:49;;;;;;;14.93;8.48;;;;;;;;;;6289541;28;20052;-65
2022/01/01 07:53:49;;;;;;;14.35;9.93;;;;;;;;;;6275045;28;20055;-59
2022/01/01 07:56:50;;;;;;;15.55;10.23;;;;;;;;;;6275961;28;20118;-60
2022/01/01 07:59:50;;;;;;;15.15;10.18;;;;;;;;;;6280587;28;20055;-56
2022/01/01 08:02:51;;;;;;;12.68;8.43;;;;;;;;;;6283988;28;20411;-59
2022/01/01 08:05:52;;;;;;;14.05;9.48;;;;;;;;;;6289134;28;20131;-59
2022/01/01 08:08:52;;;;;;;13.80;8.85;;;;;;;;;;6287822;28;20048;-60
2022/01/01 08:11:54;;;;;;;12.27;8.20;;;;;;;;;;6289837;28;20068;-59
2022/01/01 08:14:56;;;;;;;12.18;8.32;;;;;;;;;;6290045;28;20044;-60
2022/01/01 08:17:57;;;;;;;12.52;8.38;;;;;;;;;;6285402;28;20052;-60
2022/01/01 08:20:58;;;;;;;13.18;8.63;;;;;;;;;;6284117;28;20613;-56
2022/01/01 08:23:58;;;;;;;13.57;8.13;;;;;;;;;;6287784;28;20064;-60
2022/01/01 08:27:01;;;;;;;11.18;8.10;;;;;;;;;;6288905;28;20059;-60
2022/01/01 08:30:02;;;;;;;10.30;6.85;;;;;;;;;;6286763;28;20182;-60
2022/01/01 08:33:03;;;;;;;10.65;6.97;;;;;;;;;;6285661;28;20490;-60
2022/01/01 08:36:05;;;;;;;10.05;6.15;;;;;;;;;;6280809;28;20702;-61
2022/01/01 08:39:06;;;;;;;10.73;6.70;;;;;;;;;;6289123;28;20048;-59
2022/01/01 08:42:09;;;;;;;11.98;7.18;;;;;;;;;;6289740;28;20055;-60
2022/01/01 08:45:10;;;;;;;10.43;6.97;;;;;;;;;;6288915;28;20103;-60
2022/01/01 08:48:11;;;;;;;13.13;7.97;;;;;;;;;;6289527;28;20490;-60
2022/01/01 08:51:19;;;;;;;11.50;7.75;;;;;;;;;;6289650;28;20076;-60
2022/01/01 08:54:19;;;;;;;13.75;8.48;;;;;;;;;;6285263;28;20047;-60
2022/01/01 08:57:20;;;;;;;14.05;7.72;;;;;;;;;;6287574;28;20056;-59
2022/01/01 09:00:21;;;;;;;13.63;8.40;;;;;;;;;;6287931;28;20121;-60
2022/01/01 09:03:22;;;;;;;12.25;7.90;;;;;;;;;;6292727;28;20129;-60
2022/01/01 09:06:22;;;;;;;12.73;7.95;;;;;;;;;;6290632;28;20071;-59
2022/01/01 09:09:23;;;;;;;13.05;7.95;;;;;;;;;;6292964;28;20123;-60
2022/01/01 09:12:28;;;;;;;12.80;8.10;;;;;;;;;;6295051;28;20063;-58
2022/01/01 09:15:28;;;;;;;12.93;9.05;;;;;;;;;;6294242;28;20045;-59
2022/01/01 09:18:29;;;;;;;12.70;8.43;;;;;;;;;;6294232;28;20131;-59
2022/01/01 09:21:30;;;;;;;14.90;8.40;;;;;;;;;;6294818;28;20079;-60
2022/01/01 09:24:31;;;;;;;14.38;8.88;;;;;;;;;;6292469;28;20097;-60
2022/01/01 09:27:31;;;;;;;15.15;8.75;;;;;;;;;;6291821;28;20041;-60
2022/01/01 09:30:32;;;;;;;16.35;10.10;;;;;;;;;;6274251;28;20536;-60
2022/01/01 09:33:33;;;;;;;19.58;11.55;;;;;;;;;;6284614;28;20080;-59
2022/01/01 09:36:34;;;;;;;16.80;11.30;;;;;;;;;;6290286;28;20122;-60
2022/01/01 09:39:35;;;;;;;18.20;12.65;;;;;;;;;;6289083;28;20088;-60
2022/01/01 09:42:36;;;;;;;19.85;13.73;;;;;;;;;;6269971;28;20056;-60
2022/01/01 09:45:38;;;;;;;20.58;14.57;;;;;;;;;;6291270;28;20064;-59
2022/01/01 09:48:39;;;;;;;15.27;10.25;;;;;;;;;;6284307;28;20045;-60
2022/01/01 09:51:41;;;;;;;18.08;11.52;;;;;;;;;;6275360;28;20438;-60
2022/01/01 09:54:41;;;;;;;14.57;9.35;;;;;;;;;;6271279;28;20064;-60
2022/01/01 09:57:42;;;;;;;16.15;9.90;;;;;;;;;;6274213;28;20052;-60
2022/01/01 10:00:43;;;;;;;13.27;7.65;;;;;;;;;;6271889;28;20041;-61
2022/01/01 10:03:45;;;;;;;12.77;8.27;;;;;;;;;;6274364;28;20071;-60
2022/01/01 10:07:03;;;;;;;;;;;;;;;;;;6281813;28;20055;-60
2022/01/01 10:10:18;;;;;;;12.20;7.72;;;;;;;;;;6284466;28;19956;-60
2022/01/01 10:13:25;;;;;;;14.20;7.57;;;;;;;;;;6288403;28;20044;-60
2022/01/01 10:16:26;;;;;;;12.45;7.65;;;;;;;;;;6282215;28;20045;-59
2022/01/01 10:19:30;;;;;;;16.90;9.25;;;;;;;;;;6291026;28;20136;-60
2022/01/01 10:22:30;;;;;;;13.80;8.52;;;;;;;;;;6284240;28;20481;-60
2022/01/01 10:28:50;;;;;;;17.17;9.30;;;;;;;;;;6281917;28;20491;-60
2022/01/01 10:32:01;;;;;;;17.27;9.82;;;;;;;;;;6281836;28;20049;-60
2022/01/01 10:35:05;;;;;;;17.13;9.75;;;;;;;;;;6279495;28;20475;-59
2022/01/01 10:38:10;;;;;;;22.02;11.98;;;;;;;;;;6280184;28;20518;-60
2022/01/01 10:41:13;;;;;;;22.40;12.57;;;;;;;;;;6289647;28;20110;-60
2022/01/01 10:44:14;;;;;;;16.25;9.93;;;;;;;;;;6290289;28;20048;-60
2022/01/01 10:47:21;;;;;;;19.37;12.00;;;;;;;;;;6286608;28;20087;-60
2022/01/01 10:50:31;;;;;;;19.90;11.75;;;;;;;;;;6290093;28;20076;-61
2022/01/01 10:53:32;;;;;;;19.10;10.48;;;;;;;;;;6283302;28;20064;-60
2022/01/01 10:56:37;;;;;;;20.55;11.07;;;;;;;;;;6280113;28;20483;-61
2022/01/01 10:59:38;;;;;;;21.38;12.32;;;;;;;;;;6283942;28;20072;-59
2022/01/01 11:02:43;;;;;;;20.77;12.20;;;;;;;;;;6288345;28;20561;-59
2022/01/01 11:05:45;;;;;;;21.08;11.52;;;;;;;;;;6281691;28;20052;-59
2022/01/01 11:08:46;;;;;;;;;;;;;;;;;;6288171;28;20094;-60
2022/01/01 11:11:48;;;;;;;18.92;10.98;;;;;;;;;;6291322;28;19946;-60
2022/01/01 11:14:49;;;;;;;19.20;11.38;;;;;;;;;;6292692;28;20094;-59
2022/01/01 11:17:50;;;;;;;20.13;12.10;;;;;;;;;;6285649;28;20445;-60
2022/01/01 11:20:51;;;;;;;20.13;13.05;;;;;;;;;;6284422;28;20044;-61
2022/01/01 11:23:52;;;;;;;24.10;14.33;;;;;;;;;;6287390;28;20060;-60
2022/01/01 11:26:53;;;;;;;26.60;15.63;;;;;;;;;;6292222;28;20131;-60
2022/01/01 11:29:56;;;;;;;22.27;14.15;;;;;;;;;;6283839;28;20049;-61
2022/01/01 11:33:02;;;;;;;24.38;15.00;;;;;;;;;;6285993;28;20080;-61
2022/01/01 11:36:03;;;;;;;23.48;13.98;;;;;;;;;;6291010;28;20053;-60
2022/01/01 11:39:06;;;;;;;20.52;13.48;;;;;;;;;;6291072;28;20127;-61
2022/01/01 11:42:15;;;;;;;25.10;14.80;;;;;;;;;;6289081;28;20084;-60
2022/01/01 11:45:38;;;;;;;24.88;14.32;;;;;;;;;;6291414;28;20036;-60
2022/01/01 11:48:40;;;;;;;27.13;13.88;;;;;;;;;;6291163;28;20044;-60
2022/01/01 11:51:49;;;;;;;21.50;12.80;;;;;;;;;;6286748;28;20048;-59
2022/01/01 11:54:58;;;;;;;21.88;12.48;;;;;;;;;;6285713;28;20540;-60
2022/01/01 11:58:00;;;;;;;17.60;11.25;;;;;;;;;;6292247;28;20410;-60
2022/01/01 12:01:09;;;;;;;;;;;;;;;;;;6287631;28;20530;-60
2022/01/01 12:04:24;;;;;;;21.13;11.55;;;;;;;;;;6287563;28;19921;-60
2022/01/01 12:07:29;;;;;;;19.52;12.30;;;;;;;;;;6290092;28;20040;-59
2022/01/01 12:10:36;;;;;;;18.95;10.90;;;;;;;;;;6283816;28;20041;-60
2022/01/01 12:13:38;;;;;;;19.15;11.35;;;;;;;;;;6288646;28;20094;-59
2022/01/01 12:16:50;;;;;;;21.92;11.32;;;;;;;;;;6284130;28;20046;-58
2022/01/01 12:19:54;;;;;;;20.88;11.90;;;;;;;;;;6285973;28;20415;-59
2022/01/01 12:22:55;;;;;;;20.40;11.57;;;;;;;;;;6288764;28;20514;-61
2022/01/01 12:25:59;;;;;;;20.48;10.88;;;;;;;;;;6288055;28;20110;-61
2022/01/01 12:29:06;;;;;;;21.30;11.25;;;;;;;;;;6290590;28;20052;-60
2022/01/01 12:32:08;;;;;;;19.35;10.38;;;;;;;;;;6288127;28;20449;-59
2022/01/01 12:35:14;;;;;;;20.75;10.95;;;;;;;;;;6291821;28;20041;-61
2022/01/01 12:38:18;;;;;;;17.23;9.13;;;;;;;;;;6291488;28;20102;-61
2022/01/01 12:41:20;;;;;;;18.50;9.85;;;;;;;;;;6295398;28;20044;-60
2022/01/01 12:44:23;;;;;;;15.65;8.27;;;;;;;;;;6291457;28;20053;-65
2022/01/01 12:47:27;;;;;;;15.05;8.63;;;;;;;;;;6289867;28;20049;-63
2022/01/01 12:50:28;;;;;;;17.73;9.77;;;;;;;;;;6280996;28;20053;-59
2022/01/01 12:53:29;;;;;;;14.90;9.32;;;;;;;;;;6292687;28;20087;-60
2022/01/01 12:56:32;;;;;;;14.93;9.25;;;;;;;;;;6289990;28;20098;-60
2022/01/01 12:59:32;;;;;;;16.25;8.90;;;;;;;;;;6284182;28;20500;-61
2022/01/01 13:02:33;;;;;;;14.00;7.70;;;;;;;;;;6280047;28;20044;-59
2022/01/01 13:05:34;;;;;;;13.95;8.70;;;;;;;;;;6277083;28;20565;-61
2022/01/01 13:08:40;;;;;;;15.82;8.30;;;;;;;;;;6289652;28;20078;-57
2022/01/01 13:11:42;;;;;;;12.60;7.80;;;;;;;;;;6270687;28;20052;-60
2022/01/01 13:14:44;;;;;;;14.05;7.63;;;;;;;;;;6271010;28;20561;-61
2022/01/01 13:17:49;;;;;;;13.43;7.93;;;;;;;;;;6286611;28;20056;-60
2022/01/01 13:20:52;;;;;;;13.38;7.75;;;;;;;;;;6291828;28;20502;-59
2022/01/01 13:23:53;;;;;;;11.85;7.15;;;;;;;;;;6289892;28;20492;-60
2022/01/01 13:26:54;;;;;;;11.57;7.05;;;;;;;;;;6286916;28;20072;-59
2022/01/01 13:29:55;;;;;;;13.00;6.90;;;;;;;;;;6280271;28;20048;-63
2022/01/01 13:32:56;;;;;;;12.75;6.82;;;;;;;;;;6275450;28;20048;-59
2022/01/01 13:35:58;;;;;;;12.43;6.85;;;;;;;;;;6273843;28;20187;-59
2022/01/01 13:39:03;;;;;;;13.07;6.75;;;;;;;;;;6274840;28;20537;-60
2022/01/01 13:42:06;;;;;;;11.77;7.03;;;;;;;;;;6269855;28;20183;-60
2022/01/01 13:45:09;;;;;;;13.05;6.70;;;;;;;;;;6291800;28;20526;-59
2022/01/01 13:48:12;;;;;;;11.50;6.25;;;;;;;;;;6292631;28;20082;-60
2022/01/01 13:51:15;;;;;;;11.77;6.55;;;;;;;;;;6295264;28;20052;-60
2022/01/01 13:54:16;;;;;;;13.77;6.55;;;;;;;;;;6292317;28;20044;-60
2022/01/01 13:57:16;;;;;;;11.10;7.10;;;;;;;;;;6292633;28;20554;-60
2022/01/01 14:00:17;;;;;;;16.48;7.80;;;;;;;;;;6293315;28;20052;-60
2022/01/01 14:03:21;;;;;;;13.93;8.52;;;;;;;;;;6292832;28;20141;-59
2022/01/01 14:06:27;;;;;;;14.52;8.02;;;;;;;;;;6289649;28;20068;-59
2022/01/01 14:09:27;;;;;;;16.38;8.60;;;;;;;;;;6279634;28;20068;-60
2022/01/01 14:12:31;;;;;;;17.33;8.63;;;;;;;;;;6279959;28;20411;-60
2022/01/01 14:15:31;;;;;;;13.05;8.18;;;;;;;;;;6280671;28;20044;-60
2022/01/01 14:18:32;;;;;;;15.90;8.38;;;;;;;;;;6278640;28;20127;-60
2022/01/01 14:21:33;;;;;;;15.13;8.65;;;;;;;;;;6278357;28;20488;-60
2022/01/01 14:24:33;;;;;;;16.02;8.30;;;;;;;;;;6277330;28;20059;-60
2022/01/01 14:27:34;;;;;;;13.30;7.95;;;;;;;;;;6270634;28;20056;-60
2022/01/01 14:30:35;;;;;;;15.32;8.15;;;;;;;;;;6273983;28;20135;-59
2022/01/01 14:33:36;;;;;;;15.13;8.23;;;;;;;;;;6277149;28;20173;-59
2022/01/01 14:36:43;;;;;;;13.75;8.30;;;;;;;;;;6278805;28;20614;-60
2022/01/01 14:39:45;;;;;;;15.30;9.07;;;;;;;;;;6276431;28;20056;-60
2022/01/01 14:42:46;;;;;;;16.60;8.93;;;;;;;;;;6275821;28;20041;-59
2022/01/01 14:45:49;;;;;;;17.40;8.82;;;;;;;;;;6279941;28;20091;-60
2022/01/01 14:48:59;;;;;;;17.27;8.82;;;;;;;;;;6277429;28;20067;-57
2022/01/01 14:52:08;;;;;;;16.35;8.48;;;;;;;;;;6276139;28;20058;-59
2022/01/01 14:55:18;;;;;;;17.77;9.38;;;;;;;;;;6279436;28;20410;-60
2022/01/01 14:58:30;;;;;;;17.63;8.98;;;;;;;;;;6277566;28;20104;-59
2022/01/01 15:01:32;;;;;;;18.77;10.25;;;;;;;;;;6277905;28;20052;-59
2022/01/01 15:04:34;;;;;;;18.00;10.23;;;;;;;;;;6278216;28;20044;-60
2022/01/01 15:07:39;;;;;;;17.42;10.20;;;;;;;;;;6277733;28;20045;-58
2022/01/01 15:10:42;;;;;;;19.80;10.45;;;;;;;;;;6276619;28;20055;-59
2022/01/01 15:13:43;;;;;;;20.23;10.57;;;;;;;;;;6273065;28;20131;-59
2022/01/01 15:16:44;;;;;;;19.02;10.05;;;;;;;;;;6274696;28;20589;-59
2022/01/01 15:19:47;;;;;;;18.92;10.05;;;;;;;;;;6279428;28;20052;-59
2022/01/01 15:23:36;;;;;;;19.15;9.52;;;;;;;;;;6277741;28;20097;-60
2022/01/01 15:26:39;;;;;;;20.85;11.27;;;;;;;;;;6231550;28;20053;-59
2022/01/01 15:29:58;;;;;;;23.25;11.95;;;;;;;;;;6272959;28;20053;-59
2022/01/01 15:36:22;;;;;;;25.90;13.35;;;;;;;;;;6277227;28;20053;-60
2022/01/01 15:39:24;;;;;;;29.30;13.95;;;;;;;;;;6279930;28;20055;-59
2022/01/01 15:42:26;;;;;;;;;;;;;;;;;;6275304;28;20049;-60
2022/01/01 15:45:26;;;;;;;25.75;13.52;;;;;;;;;;6275661;28;20763;-60
2022/01/01 15:48:28;;;;;;;28.45;13.90;;;;;;;;;;6278412;28;20159;-60
2022/01/01 15:51:30;;;;;;;28.40;14.50;;;;;;;;;;6277793;28;20158;-60
2022/01/01 15:54:31;;;;;;;28.92;13.93;;;;;;;;;;6277871;28;20048;-60
2022/01/01 15:57:55;;;;;;;29.42;14.15;;;;;;;;;;6274476;28;20493;-60
2022/01/01 16:01:02;;;;;;;25.85;13.15;;;;;;;;;;6276517;28;20053;-60
2022/01/01 16:04:06;;;;;;;24.25;14.10;;;;;;;;;;6255148;28;20080;-59
2022/01/01 16:07:09;;;;;;;22.63;12.90;;;;;;;;;;6273505;28;20107;-60
2022/01/01 16:10:12;;;;;;;23.75;11.80;;;;;;;;;;6272433;28;20044;-59
2022/01/01 16:13:14;;;;;;;20.05;11.02;;;;;;;;;;6283536;28;20056;-59
2022/01/01 16:16:15;;;;;;;22.60;11.25;;;;;;;;;;6289420;28;20503;-60
2022/01/01 16:19:18;;;;;;;18.27;10.95;;;;;;;;;;6277678;28;20098;-58
2022/01/01 16:22:19;;;;;;;18.55;10.07;;;;;;;;;;6259734;28;20052;-57
2022/01/01 16:25:21;;;;;;;16.73;9.98;;;;;;;;;;6266901;28;20056;-58
2022/01/01 16:28:23;;;;;;;17.45;9.98;;;;;;;;;;6263147;28;20045;-59
2022/01/01 16:31:25;;;;;;;17.23;9.77;;;;;;;;;;6266222;28;20045;-58
2022/01/01 16:34:27;;;;;;;18.42;10.68;;;;;;;;;;6269653;28;20044;-59
2022/01/01 16:37:28;;;;;;;22.88;12.52;;;;;;;;;;6266661;28;20057;-59
2022/01/01 16:40:45;;;;;;;36.15;15.98;;;;;;;;;;6264177;28;20049;-56
2022/01/01 16:44:03;;;;;;;51.15;21.73;;;;;;;;;;6268935;28;20057;-60
2022/01/01 16:47:26;;;;;;;28.08;12.65;;;;;;;;;;6272649;28;20558;-58
2022/01/01 16:50:29;;;;;;;36.28;14.75;;;;;;;;;;6266229;28;20063;-59
2022/01/01 16:53:33;;;;;;;19.25;9.55;;;;;;;;;;6263988;28;20420;-54
2022/01/01 16:56:34;;;;;;;25.90;12.38;;;;;;;;;;6268954;28;20044;-59
2022/01/01 16:59:36;;;;;;;21.73;11.10;;;;;;;;;;6266484;28;20084;-56
2022/01/01 17:02:39;;;;;;;20.65;10.65;;;;;;;;;;6264522;28;21417;-54
2022/01/01 17:05:41;;;;;;;17.20;10.48;;;;;;;;;;6268592;28;20059;-55
2022/01/01 17:08:44;;;;;;;18.65;11.55;;;;;;;;;;6268984;28;20056;-57
2022/01/01 17:11:45;;;;;;;20.63;11.10;;;;;;;;;;6267599;28;20407;-59
2022/01/01 17:14:46;;;;;;;22.67;13.07;;;;;;;;;;6267626;28;20047;-58
2022/01/01 17:18:12;;;;;;;21.70;11.27;;;;;;;;;;6268167;28;20163;-60
2022/01/01 17:21:15;;;;;;;18.02;10.30;;;;;;;;;;6265626;28;20059;-59
2022/01/01 17:24:20;;;;;;;21.85;12.45;;;;;;;;;;6270646;28;20510;-59
2022/01/01 17:27:27;;;;;;;21.13;12.13;;;;;;;;;;6270424;28;20044;-60
2022/01/01 17:30:29;;;;;;;22.65;12.45;;;;;;;;;;6271690;28;20056;-60
2022/01/01 17:33:37;;;;;;;23.67;13.70;;;;;;;;;;6273286;28;20139;-59
2022/01/01 17:39:55;;;;;;;28.08;14.10;;;;;;;;;;6269936;28;20384;-57
2022/01/01 17:42:57;;;;;;;28.50;16.00;;;;;;;;;;6269382;28;20135;-60
2022/01/01 17:45:58;;;;;;;29.15;16.08;;;;;;;;;;6266662;28;20049;-59
2022/01/01 17:49:03;;;;;;;26.23;14.95;;;;;;;;;;6276595;28;20072;-58
2022/01/01 17:52:08;;;;;;;37.10;17.27;;;;;;;;;;6283923;28;20509;-61
2022/01/01 17:55:12;;;;;;;30.27;16.45;;;;;;;;;;6281607;28;20041;-60
2022/01/01 17:58:15;;;;;;;31.20;17.33;;;;;;;;;;6281451;28;20140;-60
2022/01/01 18:01:16;;;;;;;36.60;20.40;;;;;;;;;;6279153;28;20521;-59
2022/01/01 18:04:17;;;;;;;33.80;17.00;;;;;;;;;;6279276;28;20040;-59
2022/01/01 18:07:24;;;;;;;29.98;15.93;;;;;;;;;;6273753;28;20143;-60